Wynantskill, New York
Current Conditions -  °F | °C
As of 10:51 AM on Friday 31 Oct 2014 (Local Time) from KALB Reporting Station
Scattered Clouds Scattered Clouds  
Wind Chill: 40°   Ceiling: Unl
Heat Index: 44°   Visibility: 10mi
Dew Point: 36°   Wind: 7mph
Humidity: 73%   Direction: 350°N
Pressure: 30.04"   Gusts: NA
Location:  42.69°N, 73.64°W
Report Text: KALB 311451Z 35006KT 10SM FEW025 FEW042 SCT260 07/02 A3004 RMK AO2 SLP174 T00670022 58007
Loading
Personal Weather Stations






























Interactive Weather Map
Tropical Storm Tracking
New forecast layout! Learn more

10-Day Weather Forecast

Advertisements
Track Severe Weather on mobile